Time;durP1;ratioP1;P1;durP2;ratioP2;P2;SDS_P1;SDS_P2;PMS_P1;PMS_P2;Temp;Humidity;BMP_temperature;BMP_pressure;BME280_temperature;BME280_humidity;BME280_pressure;Samples;Min_cycle;Max_cycle;Signal;HPM_P1;HPM_P2
2022/05/08 00:01:00;;;;;;;7.00;4.85;;;12.00;99.90;;;;;;5089466;28;20408;-74
2022/05/08 00:03:27;;;;;;;10.10;5.10;;;11.90;99.90;;;;;;5093477;28;20036;-73
2022/05/08 00:05:54;;;;;;;8.85;4.97;;;12.00;99.90;;;;;;5097131;28;20471;-74
2022/05/08 00:08:21;;;;;;;10.00;5.28;;;12.00;99.90;;;;;;5093578;28;20051;-73
2022/05/08 00:10:48;;;;;;;8.52;4.43;;;11.90;99.90;;;;;;5095135;28;20058;-74
2022/05/08 00:13:14;;;;;;;9.80;5.43;;;11.90;99.90;;;;;;5088228;28;20053;-75
2022/05/08 00:15:41;;;;;;;7.72;5.28;;;11.90;99.90;;;;;;5090357;28;20490;-74
2022/05/08 00:18:08;;;;;;;9.18;6.03;;;11.90;99.90;;;;;;5072752;28;20047;-74
2022/05/08 00:20:35;;;;;;;10.48;6.10;;;11.90;99.90;;;;;;5099072;28;20048;-74
2022/05/08 00:23:05;;;;;;;14.35;8.25;;;11.90;99.90;;;;;;5093280;28;20032;-73
2022/05/08 00:25:33;;;;;;;11.07;7.80;;;11.90;99.90;;;;;;5099315;28;20033;-73
2022/05/08 00:28:00;;;;;;;;;;;11.90;99.90;;;;;;5092315;28;20035;-74
2022/05/08 00:30:27;;;;;;;9.60;6.45;;;11.90;99.90;;;;;;5087348;28;20466;-75
2022/05/08 00:32:54;;;;;;;12.10;7.15;;;11.90;99.90;;;;;;5094592;28;20102;-74
2022/05/08 00:35:21;;;;;;;8.60;5.85;;;11.90;99.90;;;;;;5100861;28;20048;-74
2022/05/08 00:37:48;;;;;;;5.47;3.88;;;11.90;99.90;;;;;;5086229;28;20046;-74
2022/05/08 00:40:14;;;;;;;8.07;4.47;;;11.90;99.90;;;;;;5107717;28;20054;-74
2022/05/08 00:42:42;;;;;;;8.57;4.43;;;11.90;99.90;;;;;;5086012;28;20036;-74
2022/05/08 00:45:09;;;;;;;7.90;4.63;;;11.90;99.90;;;;;;5100403;28;20043;-74
2022/05/08 00:47:37;;;;;;;9.88;5.70;;;11.90;99.90;;;;;;5087259;28;20040;-74
2022/05/08 00:50:06;;;;;;;6.65;4.35;;;11.90;99.90;;;;;;5100076;28;20036;-74
2022/05/08 00:52:35;;;;;;;8.23;5.53;;;12.00;99.90;;;;;;5088157;28;20462;-74
2022/05/08 00:55:03;;;;;;;13.23;7.03;;;12.00;99.90;;;;;;5088215;28;20036;-74
2022/05/08 00:57:30;;;;;;;15.30;7.35;;;12.00;99.90;;;;;;5090216;28;20050;-74
2022/05/08 01:00:03;;;;;;;11.02;6.75;;;12.00;99.90;;;;;;5099374;28;20071;-74
2022/05/08 01:02:31;;;;;;;10.05;5.90;;;12.00;99.90;;;;;;5083436;28;20024;-74
2022/05/08 01:04:58;;;;;;;;;;;12.00;99.90;;;;;;5109014;28;20039;-74
2022/05/08 01:07:26;;;;;;;10.10;5.57;;;12.00;99.90;;;;;;5087661;28;19920;-74
2022/05/08 01:09:54;;;;;;;8.80;6.32;;;12.00;99.90;;;;;;5099348;28;20035;-74
2022/05/08 01:12:24;;;;;;;10.30;6.78;;;12.00;99.90;;;;;;5090279;28;20040;-74
2022/05/08 01:15:11;;;;;;;10.60;7.13;;;12.00;99.90;;;;;;5093441;28;20036;-74
2022/05/08 01:17:38;;;;;;;9.80;7.00;;;12.00;99.90;;;;;;5071661;28;20076;-74
2022/05/08 01:20:06;;;;;;;13.63;6.38;;;12.00;99.90;;;;;;5099134;28;20032;-74
2022/05/08 01:22:33;;;;;;;10.95;6.95;;;12.00;99.90;;;;;;5107584;28;20110;-74
2022/05/08 01:25:00;;;;;;;9.85;7.00;;;12.00;99.90;;;;;;5092028;28;20113;-74
2022/05/08 01:27:27;;;;;;;14.07;9.07;;;12.00;99.90;;;;;;5091549;28;20040;-74
2022/05/08 01:29:54;;;;;;;9.00;6.38;;;12.00;99.90;;;;;;5089429;28;20032;-75
2022/05/08 01:35:37;;;;;;;10.45;6.10;;;12.00;99.90;;;;;;5015160;28;19991;-64
2022/05/08 01:38:05;;;;;;;8.75;5.88;;;12.00;99.90;;;;;;5088381;28;20071;-64
2022/05/08 01:40:35;;;;;;;8.63;5.75;;;11.90;99.90;;;;;;5091297;28;20101;-64
2022/05/08 01:43:02;;;;;;;8.60;5.38;;;12.00;99.90;;;;;;5089516;28;20427;-64
2022/05/08 01:45:30;;;;;;;7.80;5.55;;;12.00;99.90;;;;;;5071453;28;20059;-65
2022/05/08 01:50:43;;;;;;;9.15;5.72;;;12.00;99.90;;;;;;5070737;28;20468;-65
2022/05/08 01:53:10;;;;;;;9.70;5.93;;;12.00;99.90;;;;;;5088929;28;20047;-65
2022/05/08 01:55:37;;;;;;;5.03;3.75;;;12.00;99.90;;;;;;5091556;28;20051;-64
2022/05/08 01:58:04;;;;;;;6.78;3.67;;;12.00;99.90;;;;;;5091512;28;20454;-64
2022/05/08 02:00:31;;;;;;;4.45;3.30;;;12.00;99.90;;;;;;5083510;28;20043;-65
2022/05/08 02:02:59;;;;;;;;;;;11.90;99.90;;;;;;5087012;28;20055;-64
2022/05/08 02:05:28;;;;;;;5.28;3.45;;;11.90;99.90;;;;;;5091025;28;19920;-64
2022/05/08 02:07:55;;;;;;;3.80;2.95;;;12.00;99.90;;;;;;5089677;28;20382;-64
2022/05/08 02:10:23;;;;;;;4.13;3.03;;;12.00;99.90;;;;;;5090833;28;20036;-64
2022/05/08 02:12:49;;;;;;;;;;;12.00;99.90;;;;;;5091742;28;20048;-65
2022/05/08 02:15:17;;;;;;;5.22;3.22;;;12.00;99.90;;;;;;5091060;28;20410;-64
2022/05/08 02:17:43;;;;;;;3.75;3.10;;;12.00;99.90;;;;;;5085912;28;20059;-65
2022/05/08 02:20:11;;;;;;;6.38;2.85;;;11.90;99.90;;;;;;5090571;28;20082;-64
2022/05/08 02:22:38;;;;;;;4.57;3.17;;;11.90;99.90;;;;;;5091303;28;20044;-64
2022/05/08 02:25:06;;;;;;;3.72;3.10;;;11.90;99.90;;;;;;5091092;28;20059;-64
2022/05/08 02:27:41;;;;;;;6.70;2.80;;;11.90;99.90;;;;;;5085908;28;20059;-64
2022/05/08 02:30:10;;;;;;;2.92;2.40;;;11.80;99.90;;;;;;5097815;28;20530;-64
2022/05/08 02:32:38;;;;;;;2.72;2.22;;;11.80;99.90;;;;;;5090980;28;20056;-64
2022/05/08 02:35:09;;;;;;;3.80;3.00;;;11.80;99.90;;;;;;5090864;28;20059;-64
2022/05/08 02:37:38;;;;;;;3.42;2.45;;;11.80;99.90;;;;;;5085797;28;20040;-65
2022/05/08 02:40:08;;;;;;;4.35;2.67;;;11.80;99.90;;;;;;5090636;28;20059;-65
2022/05/08 02:42:39;;;;;;;5.03;2.95;;;11.80;99.90;;;;;;5091200;28;20040;-65
2022/05/08 02:45:08;;;;;;;4.20;3.00;;;11.80;99.90;;;;;;5087817;28;20048;-65
2022/05/08 02:47:38;;;;;;;4.45;2.95;;;11.70;99.90;;;;;;5091186;28;20067;-65
2022/05/08 02:50:09;;;;;;;7.05;3.20;;;11.70;99.90;;;;;;5090588;28;20036;-66
2022/05/08 02:52:40;;;;;;;4.90;2.78;;;11.70;99.90;;;;;;5092395;28;20131;-65
2022/05/08 03:00:43;;;;;;;4.38;2.38;;;11.70;99.90;;;;;;5093984;28;20046;-65
2022/05/08 03:03:11;;;;;;;3.53;3.00;;;11.60;99.90;;;;;;5094674;28;20404;-65
2022/05/08 03:05:41;;;;;;;4.93;2.60;;;11.70;99.90;;;;;;5086258;28;20054;-65
2022/05/08 03:08:08;;;;;;;4.15;2.88;;;11.70;99.90;;;;;;5094647;28;20039;-65
2022/05/08 03:13:21;;;;;;;4.32;3.00;;;11.70;99.90;;;;;;5092787;28;20059;-65
2022/05/08 03:15:48;;;;;;;3.45;2.83;;;11.70;99.90;;;;;;5088576;28;20419;-66
2022/05/08 03:18:18;;;;;;;3.60;2.55;;;11.70;99.90;;;;;;5094447;28;20056;-65
2022/05/08 03:20:46;;;;;;;4.10;2.80;;;11.70;99.90;;;;;;5093958;28;20036;-66
2022/05/08 03:23:14;;;;;;;4.82;2.88;;;11.70;99.90;;;;;;5086821;28;20048;-65
2022/05/08 03:25:42;;;;;;;3.40;2.47;;;11.80;99.90;;;;;;5094046;28;20040;-65
2022/05/08 03:28:09;;;;;;;4.00;2.63;;;11.80;99.90;;;;;;5094215;28;20055;-66
2022/05/08 03:30:36;;;;;;;2.88;2.38;;;11.80;99.90;;;;;;5093829;28;20036;-65
2022/05/08 03:33:03;;;;;;;3.38;2.70;;;11.70;99.90;;;;;;5085212;28;20093;-65
2022/05/08 03:35:30;;;;;;;3.20;2.45;;;11.70;99.90;;;;;;5094118;28;20044;-65
2022/05/08 03:37:56;;;;;;;4.78;2.65;;;11.70;99.90;;;;;;5094120;28;20488;-65
2022/05/08 03:40:26;;;;;;;3.97;2.50;;;11.80;99.90;;;;;;5087502;28;20086;-65
2022/05/08 03:42:54;;;;;;;3.08;2.50;;;11.80;99.90;;;;;;5094062;28;20047;-65
2022/05/08 03:45:20;;;;;;;;;;;11.80;99.90;;;;;;5094522;28;20549;-65
2022/05/08 03:47:51;;;;;;;4.88;2.97;;;11.80;99.90;;;;;;5089272;28;20331;-66
2022/05/08 03:50:19;;;;;;;3.17;2.40;;;11.80;99.90;;;;;;5092079;28;20048;-65
2022/05/08 03:52:47;;;;;;;4.28;2.33;;;11.70;99.90;;;;;;5093893;28;20048;-65
2022/05/08 03:55:17;;;;;;;4.85;2.47;;;11.70;99.90;;;;;;5093848;28;20458;-65
2022/05/08 03:57:44;;;;;;;4.03;2.80;;;11.70;99.90;;;;;;5085201;28;20036;-65
2022/05/08 04:00:13;;;;;;;4.22;2.17;;;11.70;99.90;;;;;;5093475;28;20488;-65
2022/05/08 04:02:40;;;;;;;3.03;2.72;;;11.70;99.90;;;;;;5093916;28;20048;-65
2022/05/08 04:05:08;;;;;;;3.78;2.80;;;11.70;99.90;;;;;;5086176;28;20032;-65
2022/05/08 04:07:37;;;;;;;3.67;2.28;;;11.70;99.90;;;;;;5093457;28;20053;-65
2022/05/08 04:10:05;;;;;;;6.30;3.17;;;11.60;99.90;;;;;;5093290;28;20036;-66
2022/05/08 04:12:31;;;;;;;3.42;2.53;;;11.70;99.90;;;;;;5093489;28;20442;-65
2022/05/08 04:14:59;;;;;;;5.18;2.88;;;11.80;99.90;;;;;;5090239;28;20097;-66
2022/05/08 04:17:28;;;;;;;;;;;11.80;99.90;;;;;;5093751;28;20109;-66
2022/05/08 04:19:55;;;;;;;5.57;2.92;;;11.80;99.90;;;;;;5093064;28;19974;-66
2022/05/08 04:25:10;;;;;;;3.88;2.63;;;11.90;99.90;;;;;;5093167;28;20078;-66
2022/05/08 04:27:37;;;;;;;4.05;2.90;;;11.90;99.90;;;;;;5093180;28;20109;-65
2022/05/08 04:30:05;;;;;;;5.22;2.72;;;11.90;99.90;;;;;;5092982;28;20044;-66
2022/05/08 04:32:32;;;;;;;4.65;2.85;;;11.90;99.90;;;;;;5085768;28;20123;-66
2022/05/08 04:34:58;;;;;;;5.95;2.90;;;11.90;99.90;;;;;;5093030;28;20051;-66
2022/05/08 04:37:25;;;;;;;3.85;2.83;;;11.90;99.90;;;;;;5093027;28;20044;-66
2022/05/08 04:39:52;;;;;;;5.13;3.10;;;11.90;99.90;;;;;;5084853;28;20036;-65
2022/05/08 04:42:18;;;;;;;7.85;2.85;;;12.00;99.90;;;;;;5092821;28;20048;-66
2022/05/08 04:44:45;;;;;;;7.30;3.67;;;11.90;99.90;;;;;;5092933;28;20044;-65
2022/05/08 04:47:12;;;;;;;7.70;3.20;;;11.90;99.90;;;;;;5086829;28;20049;-66
2022/05/08 04:49:38;;;;;;;4.63;2.85;;;11.90;99.90;;;;;;5092282;28;20051;-65
2022/05/08 04:52:05;;;;;;;5.35;2.95;;;11.90;99.90;;;;;;5092548;28;20412;-66
2022/05/08 04:54:32;;;;;;;3.58;2.80;;;11.90;99.90;;;;;;5088463;28;20040;-65
2022/05/08 04:57:01;;;;;;;5.75;3.95;;;12.00;99.90;;;;;;5088676;28;20044;-65
2022/05/08 04:59:31;;;;;;;5.30;3.30;;;12.00;99.90;;;;;;5072094;28;20306;-66
2022/05/08 05:01:57;;;;;;;8.80;4.30;;;12.00;99.90;;;;;;5071847;28;20051;-66
2022/05/08 05:04:24;;;;;;;9.48;3.90;;;12.00;99.90;;;;;;5084805;28;20048;-66
2022/05/08 05:06:51;;;;;;;4.97;3.65;;;12.00;99.90;;;;;;5092444;28;20048;-66
2022/05/08 05:09:18;;;;;;;7.13;4.30;;;12.10;99.90;;;;;;5091629;28;20051;-66
2022/05/08 05:11:45;;;;;;;11.82;6.28;;;12.10;99.90;;;;;;5090765;28;20058;-66
2022/05/08 05:14:12;;;;;;;12.63;7.32;;;12.10;99.90;;;;;;5080299;28;20067;-66
2022/05/08 05:16:39;;;;;;;16.20;6.78;;;12.00;99.90;;;;;;5091680;28;20040;-66
2022/05/08 05:19:06;;;;;;;15.05;8.02;;;12.00;99.90;;;;;;5091908;28;20085;-65
2022/05/08 05:21:32;;;;;;;17.15;8.02;;;12.10;99.90;;;;;;5085929;28;20040;-66
2022/05/08 05:23:59;;;;;;;11.60;6.20;;;12.10;99.90;;;;;;5091515;28;20047;-66
2022/05/08 05:26:26;;;;;;;13.38;5.85;;;12.10;99.90;;;;;;5092109;28;20439;-66
2022/05/08 05:28:52;;;;;;;9.35;6.13;;;12.10;99.90;;;;;;5085350;28;20036;-66
2022/05/08 05:31:20;;;;;;;8.95;5.15;;;12.10;99.90;;;;;;5091380;28;20048;-66
2022/05/08 05:33:47;;;;;;;14.02;7.65;;;12.20;99.90;;;;;;5091538;28;20390;-66
2022/05/08 05:36:14;;;;;;;18.42;10.23;;;12.20;99.90;;;;;;5089399;28;20044;-66
2022/05/08 05:38:40;;;;;;;19.52;10.95;;;12.20;99.90;;;;;;5091477;28;20051;-66
2022/05/08 05:41:07;;;;;;;21.75;11.30;;;12.20;99.90;;;;;;5091422;28;20063;-66
2022/05/08 05:43:34;;;;;;;17.48;9.77;;;12.30;99.90;;;;;;5091653;28;20040;-66
2022/05/08 05:48:46;;;;;;;26.70;14.52;;;12.30;99.90;;;;;;5086235;28;20453;-66
2022/05/08 05:51:13;;;;;;;29.00;16.65;;;12.30;99.90;;;;;;5091289;28;20043;-66
2022/05/08 05:53:40;;;;;;;23.13;14.05;;;12.40;99.90;;;;;;5090559;28;20377;-66
2022/05/08 05:56:06;;;;;;;26.00;13.98;;;12.50;99.90;;;;;;5091301;28;20374;-65
2022/05/08 05:58:33;;;;;;;25.77;13.90;;;12.50;99.90;;;;;;5091308;28;20047;-66
2022/05/08 06:01:00;;;;;;;24.70;13.27;;;12.60;99.90;;;;;;5090341;28;20043;-66
2022/05/08 06:03:27;;;;;;;25.30;14.27;;;12.60;99.90;;;;;;5091132;28;20111;-65
2022/05/08 06:05:54;;;;;;;23.13;12.90;;;12.60;99.90;;;;;;5091309;28;20500;-66
2022/05/08 06:08:20;;;;;;;27.63;15.80;;;12.60;99.90;;;;;;5090998;28;20048;-66
2022/05/08 06:10:47;;;;;;;27.35;14.45;;;12.70;99.90;;;;;;5088325;28;20048;-66
2022/05/08 06:13:14;;;;;;;26.67;17.25;;;12.70;99.90;;;;;;5089301;28;20063;-65
2022/05/08 06:15:40;;;;;;;27.88;16.00;;;12.80;99.90;;;;;;5091270;28;20044;-66
2022/05/08 06:18:07;;;;;;;29.00;16.65;;;12.80;99.90;;;;;;5090693;28;20048;-65
2022/05/08 06:20:34;;;;;;;31.95;17.73;;;12.80;99.90;;;;;;5084335;28;20132;-66
2022/05/08 06:23:01;;;;;;;30.15;16.40;;;12.80;99.90;;;;;;5090679;28;20036;-65
2022/05/08 06:25:30;;;;;;;33.97;19.25;;;12.80;99.90;;;;;;5074320;28;20089;-66
2022/05/08 06:27:57;;;;;;;40.22;21.23;;;12.90;99.90;;;;;;5092700;28;20089;-66
2022/05/08 06:30:24;;;;;;;48.17;24.65;;;12.90;99.90;;;;;;5085969;28;20032;-66
2022/05/08 06:32:51;;;;;;;48.72;23.05;;;12.90;99.90;;;;;;5076660;28;20044;-65
2022/05/08 06:35:39;;;;;;;45.65;22.85;;;12.90;99.90;;;;;;5094669;28;20040;-66
2022/05/08 06:38:09;;;;;;;44.33;23.02;;;13.00;99.90;;;;;;5089931;28;20443;-66
2022/05/08 06:40:40;;;;;;;44.17;22.52;;;13.10;99.90;;;;;;5094338;28;20040;-66
2022/05/08 06:43:08;;;;;;;41.85;22.33;;;13.20;99.90;;;;;;5094930;28;20517;-66
2022/05/08 06:45:35;;;;;;;44.97;23.38;;;13.40;99.90;;;;;;5083813;28;20097;-66
2022/05/08 06:48:06;;;;;;;43.17;22.27;;;13.60;99.90;;;;;;5087375;28;20462;-66
2022/05/08 06:50:33;;;;;;;52.75;22.60;;;13.70;99.90;;;;;;5083798;28;20044;-65
2022/05/08 06:53:00;;;;;;;38.90;21.08;;;13.80;99.90;;;;;;5094399;28;20109;-66
2022/05/08 06:55:27;;;;;;;34.38;20.30;;;13.90;99.90;;;;;;5094725;28;20101;-65
2022/05/08 06:57:54;;;;;;;36.75;21.23;;;14.00;99.90;;;;;;5091351;28;20036;-66
2022/05/08 07:03:06;;;;;;;37.55;21.30;;;14.20;99.90;;;;;;5074304;28;20036;-66
2022/05/08 07:05:38;;;;;;;38.33;20.85;;;14.30;99.90;;;;;;5086500;28;20040;-66
2022/05/08 07:08:04;;;;;;;36.88;21.35;;;14.40;99.90;;;;;;5092878;28;20044;-66
2022/05/08 07:10:31;;;;;;;35.60;21.35;;;14.30;99.90;;;;;;5093981;28;20044;-66
2022/05/08 07:12:58;;;;;;;37.80;21.58;;;14.40;99.90;;;;;;5093771;28;20089;-66
2022/05/08 07:15:25;;;;;;;38.55;22.33;;;14.50;99.90;;;;;;5092111;28;20040;-66
2022/05/08 07:18:11;;;;;;;38.05;22.67;;;14.50;99.90;;;;;;5093282;28;20119;-66
2022/05/08 07:20:38;;;;;;;37.85;22.67;;;14.50;99.90;;;;;;5093851;28;20466;-66
2022/05/08 07:23:05;;;;;;;38.88;23.15;;;14.50;99.90;;;;;;5094329;28;20097;-66
2022/05/08 07:25:32;;;;;;;35.70;22.95;;;14.60;99.90;;;;;;5085860;28;20073;-66
2022/05/08 07:27:59;;;;;;;36.53;21.70;;;14.60;99.90;;;;;;5093796;28;20032;-66
2022/05/08 07:30:25;;;;;;;41.13;22.38;;;14.60;99.90;;;;;;5093168;28;20066;-66
2022/05/08 07:32:52;;;;;;;35.55;23.25;;;14.80;99.90;;;;;;5108170;22;20027;-72
2022/05/08 07:38:05;;;;;;;39.65;21.00;;;15.00;99.90;;;;;;5123732;27;20036;-73
2022/05/08 07:40:33;;;;;;;35.83;20.90;;;14.90;99.90;;;;;;5121263;27;20043;-73
2022/05/08 07:43:01;;;;;;;30.55;18.60;;;15.00;99.90;;;;;;5116846;27;20067;-73
2022/05/08 07:45:28;;;;;;;41.28;21.30;;;15.00;99.90;;;;;;5100457;28;20044;-73
2022/05/08 07:47:59;;;;;;;33.67;20.85;;;14.90;99.90;;;;;;5100235;28;20115;-73
2022/05/08 07:50:25;;;;;;;40.67;21.85;;;15.00;99.90;;;;;;5099893;28;20071;-73
2022/05/08 07:52:52;;;;;;;30.55;20.80;;;15.10;99.90;;;;;;5086397;28;20093;-73
2022/05/08 07:55:19;;;;;;;32.50;20.33;;;15.20;99.90;;;;;;5091933;28;20040;-73
2022/05/08 07:57:46;;;;;;;29.60;20.73;;;15.30;99.90;;;;;;5088830;28;20552;-73
2022/05/08 08:00:13;;;;;;;29.02;19.08;;;15.30;99.90;;;;;;5100350;28;20040;-73
2022/05/08 08:02:40;;;;;;;24.73;17.17;;;15.30;99.90;;;;;;5098696;28;20127;-74
2022/05/08 08:05:08;;;;;;;32.45;18.48;;;15.30;99.90;;;;;;5103768;28;20039;-74
2022/05/08 08:07:36;;;;;;;25.77;16.42;;;15.20;99.90;;;;;;5104190;28;20044;-74
2022/05/08 08:10:04;;;;;;;25.52;16.92;;;15.10;99.90;;;;;;5097408;28;20187;-74
2022/05/08 08:12:32;;;;;;;26.92;15.88;;;15.00;99.90;;;;;;5093235;28;20052;-74
2022/05/08 08:14:59;;;;;;;35.50;17.90;;;15.00;99.90;;;;;;5093344;28;20056;-76
2022/05/08 08:17:28;;;;;;;25.52;18.15;;;15.10;99.90;;;;;;5088880;28;20036;-76
2022/05/08 08:19:55;;;;;;;26.77;17.88;;;15.00;99.90;;;;;;5092728;28;20050;-75
2022/05/08 08:22:22;;;;;;;24.27;15.43;;;14.90;99.90;;;;;;5093060;28;20135;-75
2022/05/08 08:24:50;;;;;;;29.38;17.17;;;14.80;99.90;;;;;;5092915;28;20040;-75
2022/05/08 08:27:18;;;;;;;27.95;18.42;;;15.20;99.90;;;;;;5084726;28;20093;-75
2022/05/08 08:29:47;;;;;;;29.23;19.92;;;14.80;99.90;;;;;;5092487;28;20047;-75
2022/05/08 08:32:14;;;;;;;29.58;19.67;;;14.90;99.90;;;;;;5095633;28;20036;-76
2022/05/08 08:34:41;;;;;;;;;;;15.00;99.90;;;;;;5102703;28;20055;-76
2022/05/08 08:37:08;;;;;;;29.65;18.30;;;15.00;99.90;;;;;;5100613;28;19923;-74
2022/05/08 08:39:35;;;;;;;31.98;18.60;;;15.00;99.90;;;;;;5100329;28;20040;-75
2022/05/08 08:42:05;;;;;;;31.33;20.20;;;15.00;99.90;;;;;;5092862;28;20090;-75
2022/05/08 08:50:05;;;;;;;40.17;20.60;;;14.90;99.90;;;;;;5091436;28;20201;-75
2022/05/08 08:52:34;;;;;;;31.42;20.08;;;14.90;99.90;;;;;;5091849;28;20097;-74
2022/05/08 08:55:01;;;;;;;30.70;19.40;;;15.00;99.90;;;;;;5092405;28;20156;-74
2022/05/08 08:57:28;;;;;;;29.30;19.23;;;15.10;99.90;;;;;;5092300;28;20044;-74
2022/05/08 08:59:54;;;;;;;29.90;20.17;;;15.10;99.90;;;;;;5091875;28;20493;-74
2022/05/08 09:02:21;;;;;;;33.08;19.52;;;15.20;99.90;;;;;;5088074;28;20097;-74
2022/05/08 09:04:50;;;;;;;34.50;18.23;;;15.60;99.90;;;;;;5092533;28;20050;-74
2022/05/08 09:07:45;;;;;;;26.88;18.60;;;15.30;99.90;;;;;;5092306;28;20048;-75
2022/05/08 09:10:18;;;;;;;36.60;18.77;;;15.30;99.90;;;;;;5089131;28;20089;-74
2022/05/08 09:12:54;;;;;;;32.35;20.50;;;15.20;99.90;;;;;;5092343;28;20386;-75
2022/05/08 09:15:28;;;;;;;26.88;17.95;;;15.20;99.90;;;;;;5092041;28;20044;-75
2022/05/08 09:18:00;;;;;;;31.67;20.17;;;15.10;99.90;;;;;;5091547;28;20484;-75
2022/05/08 09:20:30;;;;;;;31.00;20.63;;;15.00;99.90;;;;;;5083410;28;20036;-75
2022/05/08 09:23:11;;;;;;;34.05;19.65;;;15.00;99.90;;;;;;5091574;28;20408;-74
2022/05/08 09:25:44;;;;;;;35.75;21.27;;;15.10;99.90;;;;;;5092118;28;20047;-76
2022/05/08 09:28:40;;;;;;;33.20;20.10;;;15.00;99.90;;;;;;5075817;28;20048;-76
2022/05/08 09:31:09;;;;;;;30.80;20.50;;;15.00;99.90;;;;;;5091254;28;20055;-76
2022/05/08 09:33:41;;;;;;;29.92;19.25;;;14.90;99.90;;;;;;5091521;28;20044;-74
2022/05/08 09:36:22;;;;;;;32.28;19.83;;;14.70;99.90;;;;;;5091913;28;20040;-75
2022/05/08 09:38:49;;;;;;;29.10;18.50;;;14.70;99.90;;;;;;5090983;28;20043;-77
2022/05/08 09:41:20;;;;;;;31.23;19.48;;;14.70;99.90;;;;;;5091386;28;20044;-76
2022/05/08 09:43:48;;;;;;;36.88;21.30;;;14.50;99.90;;;;;;5091547;28;20402;-78
2022/05/08 09:46:16;;;;;;;35.97;21.13;;;14.50;99.90;;;;;;5073611;28;20047;-76
2022/05/08 09:48:43;;;;;;;30.33;19.25;;;14.40;99.90;;;;;;5086924;28;20446;-77
2022/05/08 09:51:15;;;;;;;35.00;20.35;;;14.40;99.90;;;;;;5091173;28;20055;-76
2022/05/08 09:53:43;;;;;;;31.33;20.08;;;14.40;99.90;;;;;;5091472;28;20048;-75
2022/05/08 09:56:12;;;;;;;31.52;19.63;;;14.30;99.90;;;;;;5090350;28;20092;-75
2022/05/08 09:58:43;;;;;;;31.77;20.45;;;14.40;99.90;;;;;;5090859;28;20089;-76
2022/05/08 10:01:13;;;;;;;29.30;18.83;;;14.50;99.90;;;;;;5091084;28;20444;-75
2022/05/08 10:03:43;;;;;;;30.52;18.48;;;14.50;99.90;;;;;;5091440;28;20450;-75
2022/05/08 10:06:11;;;;;;;27.60;18.63;;;14.70;99.90;;;;;;5089679;28;20048;-75
2022/05/08 10:08:38;;;;;;;24.95;17.48;;;14.80;99.90;;;;;;5073394;28;20488;-75
2022/05/08 10:14:05;;;;;;;24.75;16.02;;;15.10;99.90;;;;;;5089053;28;20032;-74
2022/05/08 10:16:46;;;;;;;23.63;15.45;;;15.30;99.90;;;;;;5085758;28;20105;-74
2022/05/08 10:22:06;;;;;;;21.35;15.50;;;15.50;99.90;;;;;;5073177;28;20032;-75
2022/05/08 10:24:35;;;;;;;25.92;15.77;;;15.40;99.90;;;;;;5083346;28;20062;-74
2022/05/08 10:27:23;;;;;;;25.00;16.73;;;15.20;99.90;;;;;;5091066;28;20048;-74
2022/05/08 10:29:50;;;;;;;;;;;15.10;99.90;;;;;;5091111;28;20051;-75
2022/05/08 10:32:43;;;;;;;24.25;14.60;;;15.10;99.90;;;;;;5090515;28;20342;-74
2022/05/08 10:35:18;;;;;;;24.85;15.30;;;15.00;99.90;;;;;;5083672;28;20059;-74
2022/05/08 10:37:52;;;;;;;24.67;15.40;;;15.10;99.90;;;;;;5090688;28;20490;-75
2022/05/08 10:40:21;;;;;;;20.92;14.55;;;15.20;99.90;;;;;;5089849;28;20042;-74
2022/05/08 10:42:58;;;;;;;21.73;14.45;;;15.20;99.90;;;;;;5085544;28;20044;-74
2022/05/08 10:45:34;;;;;;;22.80;14.10;;;15.30;99.90;;;;;;5090940;28;20040;-74
2022/05/08 10:48:20;;;;;;;19.60;13.85;;;15.40;99.90;;;;;;5090097;28;20493;-74
2022/05/08 10:50:50;;;;;;;22.35;15.65;;;15.40;99.90;;;;;;5088392;28;20520;-74
2022/05/08 10:53:36;;;;;;;24.95;13.25;;;15.50;99.90;;;;;;5072746;28;20048;-74
2022/05/08 10:56:10;;;;;;;22.67;13.68;;;15.50;99.90;;;;;;5091001;28;20040;-74
2022/05/08 10:58:55;;;;;;;18.75;13.75;;;15.50;99.90;;;;;;5087216;28;20436;-74
2022/05/08 11:01:24;;;;;;;19.35;12.73;;;15.50;99.90;;;;;;5089821;28;20127;-74
2022/05/08 11:03:51;;;;;;;18.13;13.32;;;15.70;99.90;;;;;;5082420;28;20072;-74
2022/05/08 11:06:20;;;;;;;18.52;14.32;;;15.80;99.90;;;;;;5084530;28;20052;-74
2022/05/08 11:08:47;;;;;;;25.05;15.38;;;15.90;99.90;;;;;;5082380;28;20031;-75
2022/05/08 11:11:14;;;;;;;23.08;13.63;;;16.00;99.90;;;;;;5090419;28;20040;-74
2022/05/08 11:13:41;;;;;;;18.85;13.85;;;16.30;99.90;;;;;;5092087;28;20366;-74
2022/05/08 11:16:09;;;;;;;18.42;13.38;;;16.40;99.90;;;;;;5093499;28;20048;-74
2022/05/08 11:18:37;;;;;;;17.25;13.30;;;16.40;99.90;;;;;;5094499;28;20036;-74
2022/05/08 11:21:05;;;;;;;22.58;13.00;;;16.50;99.90;;;;;;5094198;28;20090;-75
2022/05/08 11:23:34;;;;;;;20.38;13.05;;;16.70;99.90;;;;;;5099621;28;20039;-75
2022/05/08 11:26:05;;;;;;;15.45;12.23;;;16.90;99.90;;;;;;5095813;28;20048;-75
2022/05/08 11:28:34;;;;;;;16.23;11.70;;;17.00;99.90;;;;;;5086952;28;20040;-74
2022/05/08 11:31:15;;;;;;;15.57;10.82;;;17.10;99.90;;;;;;5094215;28;20378;-75
2022/05/08 11:36:30;;;;;;;18.02;11.02;;;17.50;99.90;;;;;;5096521;28;20040;-75
2022/05/08 11:39:05;;;;;;;22.42;10.52;;;17.60;99.90;;;;;;5094209;28;20044;-75
2022/05/08 11:41:32;;;;;;;15.98;9.80;;;17.80;99.90;;;;;;5094014;28;20044;-75
2022/05/08 11:44:03;;;;;;;13.15;8.75;;;17.90;99.90;;;;;;5087147;28;20037;-75
2022/05/08 11:46:44;;;;;;;11.60;8.35;;;17.80;99.90;;;;;;5068112;28;20089;-75
2022/05/08 11:49:18;;;;;;;13.07;9.15;;;17.50;99.90;;;;;;5091842;28;20479;-76
2022/05/08 11:51:51;;;;;;;15.00;9.27;;;17.40;99.90;;;;;;5091384;28;20047;-75
2022/05/08 11:54:22;;;;;;;19.77;8.88;;;17.50;99.90;;;;;;5090513;28;20039;-74
2022/05/08 11:56:51;;;;;;;11.50;7.85;;;17.50;99.90;;;;;;5092399;28;20055;-76
2022/05/08 11:59:21;;;;;;;13.80;8.25;;;17.50;99.90;;;;;;5091865;28;20040;-75
2022/05/08 12:01:52;;;;;;;10.82;8.57;;;17.50;99.90;;;;;;5087176;28;20043;-75
2022/05/08 12:04:26;;;;;;;12.13;8.02;;;17.60;99.90;;;;;;5093419;28;20051;-75
2022/05/08 12:07:08;;;;;;;9.63;7.50;;;17.50;99.90;;;;;;5093633;28;20123;-75
2022/05/08 12:09:51;;;;;;;12.95;8.43;;;17.40;99.90;;;;;;5091808;28;20051;-75
2022/05/08 12:12:25;;;;;;;11.45;7.30;;;17.40;99.90;;;;;;5092139;28;20101;-75
2022/05/08 12:15:15;;;;;;;10.48;7.22;;;17.50;99.90;;;;;;5093570;28;20458;-75
2022/05/08 12:17:42;;;;;;;12.10;8.43;;;17.60;99.90;;;;;;5088880;28;20092;-75
2022/05/08 12:20:22;;;;;;;8.75;7.03;;;17.60;99.90;;;;;;5090117;28;20081;-75
2022/05/08 12:22:59;;;;;;;9.15;7.40;;;17.60;99.90;;;;;;5093338;28;20164;-76
2022/05/08 12:25:27;;;;;;;13.00;8.15;;;17.60;99.90;;;;;;5092193;28;20048;-75
2022/05/08 12:27:53;;;;;;;13.18;7.68;;;17.90;99.90;;;;;;5088966;28;20040;-75
2022/05/08 12:30:20;;;;;;;15.43;7.22;;;17.80;99.90;;;;;;5092658;28;20047;-77
2022/05/08 12:32:47;;;;;;;13.65;7.38;;;17.60;99.90;;;;;;5093059;28;20052;-75
2022/05/08 12:35:15;;;;;;;8.93;7.18;;;17.40;99.90;;;;;;5092219;28;20048;-76
2022/05/08 12:37:41;;;;;;;;;;;17.20;99.90;;;;;;5093444;28;20051;-76
2022/05/08 12:40:15;;;;;;;19.17;7.95;;;17.10;99.90;;;;;;5092683;28;19969;-76
2022/05/08 12:42:43;;;;;;;11.15;7.50;;;17.10;99.90;;;;;;5088220;28;20044;-76
2022/05/08 12:45:10;;;;;;;;;;;17.00;99.90;;;;;;5090408;28;20389;-76
2022/05/08 12:47:37;;;;;;;9.60;7.85;;;17.10;99.90;;;;;;5092934;28;19920;-75
2022/05/08 12:50:05;;;;;;;8.35;6.90;;;17.30;99.90;;;;;;5092284;28;20098;-77
2022/05/08 12:52:35;;;;;;;14.93;7.10;;;17.60;99.90;;;;;;5088492;28;20047;-77
2022/05/08 12:55:04;;;;;;;10.40;6.68;;;18.00;99.90;;;;;;5092492;28;20040;-77
2022/05/08 13:00:18;;;;;;;11.73;7.15;;;18.60;99.90;;;;;;5085550;28;20051;-77
2022/05/08 13:02:48;;;;;;;9.50;7.05;;;18.80;99.90;;;;;;5092514;28;20085;-77
2022/05/08 13:05:15;;;;;;;11.80;7.47;;;18.90;99.90;;;;;;5092759;28;20051;-76
2022/05/08 13:07:42;;;;;;;12.77;7.05;;;19.00;99.90;;;;;;5084702;28;20051;-76
2022/05/08 13:10:09;;;;;;;11.23;5.78;;;18.90;99.90;;;;;;5091757;28;20044;-76
2022/05/08 13:12:35;;;;;;;10.15;6.60;;;19.00;99.90;;;;;;5092160;28;20081;-76
2022/05/08 13:15:02;;;;;;;8.10;6.55;;;18.70;99.90;;;;;;5092438;28;20044;-77
2022/05/08 13:17:30;;;;;;;26.42;8.30;;;18.40;99.90;;;;;;5088346;28;20450;-76
2022/05/08 13:19:58;;;;;;;11.75;7.72;;;18.10;99.90;;;;;;5091816;28;20044;-77
2022/05/08 13:22:25;;;;;;;9.30;7.43;;;17.90;99.90;;;;;;5092371;28;20442;-77
2022/05/08 13:24:58;;;;;;;11.13;6.60;;;17.80;99.90;;;;;;5089369;28;20481;-76
2022/05/08 13:27:25;;;;;;;12.93;7.50;;;17.70;99.90;;;;;;5091774;28;20036;-76
2022/05/08 13:29:53;;;;;;;8.43;6.00;;;17.70;99.90;;;;;;5091811;28;20032;-76